Terminal Aerodrome Forecast
Issued by NWS

Home | Current Version | Previous Version | Text Only | Print | Product List | Glossary On
Versions: 1 2 3 4 5 6 7 8 9 10 11 12
000
FTAK31 PAJN 250524
TAFAJN
TAF
PAJN 250524Z 2506/2606 VRB05KT P6SM VCSH FEW030 BKN035 OVC060
     FM252100 28006KT P6SM VCSH SCT035 BKN050
     FM260300 VRB04KT P6SM BKN050=

USA.gov is the U.S. government's official web portal to all federal, state and local government web resources and services.